sensor_id;sensor_type;location;lat;lon;timestamp;pressure;altitude;pressure_sealevel;temperature;humidity
7760;BME280;3924;48.830;9.262;2023-03-05T00:01:46;98928.34;;;2.85;73.23
7760;BME280;3924;48.830;9.262;2023-03-05T00:04:14;98928.09;;;2.87;73.30
7760;BME280;3924;48.830;9.262;2023-03-05T00:06:40;98922.75;;;2.87;73.32
7760;BME280;3924;48.830;9.262;2023-03-05T00:09:07;98927.31;;;2.86;73.38
7760;BME280;3924;48.830;9.262;2023-03-05T00:11:33;98928.94;;;2.87;73.38
7760;BME280;3924;48.830;9.262;2023-03-05T00:14:02;98935.94;;;2.88;73.17
7760;BME280;3924;48.830;9.262;2023-03-05T00:16:30;98926.84;;;2.89;73.36
7760;BME280;3924;48.830;9.262;2023-03-05T00:18:58;98929.53;;;2.89;73.31
7760;BME280;3924;48.830;9.262;2023-03-05T00:21:27;98923.94;;;2.91;73.40
7760;BME280;3924;48.830;9.262;2023-03-05T00:23:55;98928.47;;;2.90;73.34
7760;BME280;3924;48.830;9.262;2023-03-05T00:26:24;98921.50;;;2.89;73.15
7760;BME280;3924;48.830;9.262;2023-03-05T00:28:51;98924.75;;;2.91;73.23
7760;BME280;3924;48.830;9.262;2023-03-05T00:31:26;98917.75;;;2.90;73.19
7760;BME280;3924;48.830;9.262;2023-03-05T00:33:58;98917.75;;;2.90;73.41
7760;BME280;3924;48.830;9.262;2023-03-05T00:36:25;98917.75;;;2.90;73.39
7760;BME280;3924;48.830;9.262;2023-03-05T00:38:52;98918.56;;;2.91;73.27
7760;BME280;3924;48.830;9.262;2023-03-05T00:41:18;98919.38;;;2.91;73.21
7760;BME280;3924;48.830;9.262;2023-03-05T00:43:45;98915.09;;;2.90;73.49
7760;BME280;3924;48.830;9.262;2023-03-05T00:46:12;98913.22;;;2.91;73.71
7760;BME280;3924;48.830;9.262;2023-03-05T00:48:38;98916.13;;;2.89;73.62
7760;BME280;3924;48.830;9.262;2023-03-05T00:51:05;98912.41;;;2.90;73.48
7760;BME280;3924;48.830;9.262;2023-03-05T00:53:32;98911.59;;;2.90;73.38
7760;BME280;3924;48.830;9.262;2023-03-05T00:55:58;98908.69;;;2.91;73.17
7760;BME280;3924;48.830;9.262;2023-03-05T00:58:25;98902.50;;;2.91;73.12
7760;BME280;3924;48.830;9.262;2023-03-05T01:00:51;98894.47;;;2.91;73.30
7760;BME280;3924;48.830;9.262;2023-03-05T01:03:18;98906.81;;;2.92;73.58
7760;BME280;3924;48.830;9.262;2023-03-05T01:05:44;98904.94;;;2.92;73.36
7760;BME280;3924;48.830;9.262;2023-03-05T01:08:11;98903.91;;;2.93;73.62
7760;BME280;3924;48.830;9.262;2023-03-05T01:10:37;98898.53;;;2.93;73.49
7760;BME280;3924;48.830;9.262;2023-03-05T01:13:04;98895.88;;;2.93;73.33
7760;BME280;3924;48.830;9.262;2023-03-05T01:15:30;98882.47;;;2.93;73.42
7760;BME280;3924;48.830;9.262;2023-03-05T01:17:57;98885.16;;;2.93;73.55
7760;BME280;3924;48.830;9.262;2023-03-05T01:20:24;98891.31;;;2.94;73.57
7760;BME280;3924;48.830;9.262;2023-03-05T01:22:50;98885.97;;;2.94;73.51
7760;BME280;3924;48.830;9.262;2023-03-05T01:25:17;98881.41;;;2.94;73.52
7760;BME280;3924;48.830;9.262;2023-03-05T01:27:44;98877.72;;;2.95;73.88
7760;BME280;3924;48.830;9.262;2023-03-05T01:30:12;98875.03;;;2.95;73.51
7760;BME280;3924;48.830;9.262;2023-03-05T01:32:39;98872.38;;;2.95;73.56
7760;BME280;3924;48.830;9.262;2023-03-05T01:35:06;98868.63;;;2.96;73.29
7760;BME280;3924;48.830;9.262;2023-03-05T01:37:34;98874.00;;;2.96;73.49
7760;BME280;3924;48.830;9.262;2023-03-05T01:40:00;98867.00;;;2.95;73.64
7760;BME280;3924;48.830;9.262;2023-03-05T01:42:27;98863.28;;;2.96;73.55
7760;BME280;3924;48.830;9.262;2023-03-05T01:45:00;98867.00;;;2.95;73.64
7760;BME280;3924;48.830;9.262;2023-03-05T01:47:28;98864.34;;;2.95;73.71
7760;BME280;3924;48.830;9.262;2023-03-05T01:49:54;98856.31;;;2.95;74.08
7760;BME280;3924;48.830;9.262;2023-03-05T01:52:23;98860.59;;;2.96;73.82
7760;BME280;3924;48.830;9.262;2023-03-05T01:54:55;98857.94;;;2.96;73.66
7760;BME280;3924;48.830;9.262;2023-03-05T01:57:34;98851.75;;;2.96;73.69
7760;BME280;3924;48.830;9.262;2023-03-05T02:00:09;98849.06;;;2.96;73.49
7760;BME280;3924;48.830;9.262;2023-03-05T02:02:37;98845.59;;;2.95;73.69
7760;BME280;3924;48.830;9.262;2023-03-05T02:05:10;98839.38;;;2.95;73.82
7760;BME280;3924;48.830;9.262;2023-03-05T02:07:38;98839.63;;;2.93;73.76
7760;BME280;3924;48.830;9.262;2023-03-05T02:10:19;98831.59;;;2.93;73.72
7760;BME280;3924;48.830;9.262;2023-03-05T02:12:48;98834.28;;;2.93;73.76
7760;BME280;3924;48.830;9.262;2023-03-05T02:15:15;98832.66;;;2.92;73.91
7760;BME280;3924;48.830;9.262;2023-03-05T02:17:41;98824.63;;;2.92;73.61
7760;BME280;3924;48.830;9.262;2023-03-05T02:20:11;98825.44;;;2.93;73.78
7760;BME280;3924;48.830;9.262;2023-03-05T02:22:38;98819.28;;;2.92;73.92
7760;BME280;3924;48.830;9.262;2023-03-05T02:25:19;98823.00;;;2.91;74.16
7760;BME280;3924;48.830;9.262;2023-03-05T02:28:00;98824.06;;;2.90;74.16
7760;BME280;3924;48.830;9.262;2023-03-05T02:30:27;98820.81;;;2.88;74.34
7760;BME280;3924;48.830;9.262;2023-03-05T02:32:54;98821.25;;;2.85;74.22
7760;BME280;3924;48.830;9.262;2023-03-05T02:35:21;98816.16;;;2.84;73.95
7760;BME280;3924;48.830;9.262;2023-03-05T02:37:47;98819.06;;;2.82;74.31
7760;BME280;3924;48.830;9.262;2023-03-05T02:40:14;98815.34;;;2.83;74.34
7760;BME280;3924;48.830;9.262;2023-03-05T02:42:41;98811.84;;;2.83;74.17
7760;BME280;3924;48.830;9.262;2023-03-05T02:45:09;98812.06;;;2.81;74.32
7760;BME280;3924;48.830;9.262;2023-03-05T02:47:36;98801.34;;;2.81;74.45
7760;BME280;3924;48.830;9.262;2023-03-05T02:50:03;98806.72;;;2.81;74.54
7760;BME280;3924;48.830;9.262;2023-03-05T02:52:30;98808.38;;;2.82;74.78
7760;BME280;3924;48.830;9.262;2023-03-05T02:54:58;98804.03;;;2.81;74.58
7760;BME280;3924;48.830;9.262;2023-03-05T02:57:24;98794.97;;;2.82;74.51
7760;BME280;3924;48.830;9.262;2023-03-05T02:59:51;98793.13;;;2.83;74.62
7760;BME280;3924;48.830;9.262;2023-03-05T03:02:18;98793.94;;;2.83;74.87
7760;BME280;3924;48.830;9.262;2023-03-05T03:04:44;98781.59;;;2.82;74.72
7760;BME280;3924;48.830;9.262;2023-03-05T03:07:12;98784.03;;;2.84;74.89
7760;BME280;3924;48.830;9.262;2023-03-05T03:09:39;98783.22;;;2.83;74.84
7760;BME280;3924;48.830;9.262;2023-03-05T03:12:06;98781.09;;;2.85;74.95
7760;BME280;3924;48.830;9.262;2023-03-05T03:14:34;98772.50;;;2.83;74.70
7760;BME280;3924;48.830;9.262;2023-03-05T03:17:09;98777.84;;;2.83;74.77
7760;BME280;3924;48.830;9.262;2023-03-05T03:19:36;98775.44;;;2.82;74.78
7760;BME280;3924;48.830;9.262;2023-03-05T03:22:04;98779.47;;;2.84;74.94
7760;BME280;3924;48.830;9.262;2023-03-05T03:24:32;98781.09;;;2.85;74.77
7760;BME280;3924;48.830;9.262;2023-03-05T03:26:59;98777.84;;;2.83;74.92
7760;BME280;3924;48.830;9.262;2023-03-05T03:29:26;98776.25;;;2.82;75.07
7760;BME280;3924;48.830;9.262;2023-03-05T03:31:52;98770.66;;;2.84;74.88
7760;BME280;3924;48.830;9.262;2023-03-05T03:34:19;98767.16;;;2.83;75.01
7760;BME280;3924;48.830;9.262;2023-03-05T03:36:47;98761.78;;;2.83;75.04
7760;BME280;3924;48.830;9.262;2023-03-05T03:39:14;98764.22;;;2.85;75.04
7760;BME280;3924;48.830;9.262;2023-03-05T03:41:43;98758.63;;;2.86;75.14
7760;BME280;3924;48.830;9.262;2023-03-05T03:44:11;98756.75;;;2.87;75.06
7760;BME280;3924;48.830;9.262;2023-03-05T03:46:39;98750.16;;;2.89;75.20
7760;BME280;3924;48.830;9.262;2023-03-05T03:49:06;98745.59;;;2.90;75.45
7760;BME280;3924;48.830;9.262;2023-03-05T03:51:33;98753.38;;;2.91;74.85
7760;BME280;3924;48.830;9.262;2023-03-05T03:54:00;98749.09;;;2.90;75.07
7760;BME280;3924;48.830;9.262;2023-03-05T03:56:26;98743.50;;;2.92;75.09
7760;BME280;3924;48.830;9.262;2023-03-05T03:58:53;98737.31;;;2.91;74.87
7760;BME280;3924;48.830;9.262;2023-03-05T04:01:20;98738.13;;;2.92;74.85
7760;BME280;3924;48.830;9.262;2023-03-05T04:03:47;98736.28;;;2.92;75.01
7760;BME280;3924;48.830;9.262;2023-03-05T04:06:13;98738.13;;;2.92;75.31
7760;BME280;3924;48.830;9.262;2023-03-05T04:08:40;98742.44;;;2.93;75.34
7760;BME280;3924;48.830;9.262;2023-03-05T04:11:07;98735.22;;;2.93;75.39
7760;BME280;3924;48.830;9.262;2023-03-05T04:13:33;98739.75;;;2.93;75.50
7760;BME280;3924;48.830;9.262;2023-03-05T04:16:00;98737.88;;;2.93;75.26
7760;BME280;3924;48.830;9.262;2023-03-05T04:18:27;98729.84;;;2.93;75.22
7760;BME280;3924;48.830;9.262;2023-03-05T04:20:53;98736.03;;;2.94;75.08
7760;BME280;3924;48.830;9.262;2023-03-05T04:23:19;98722.41;;;2.95;75.50
7760;BME280;3924;48.830;9.262;2023-03-05T04:25:46;98726.94;;;2.95;75.30
7760;BME280;3924;48.830;9.262;2023-03-05T04:28:13;98727.78;;;2.95;75.38
7760;BME280;3924;48.830;9.262;2023-03-05T04:30:39;98725.91;;;2.96;75.25
7760;BME280;3924;48.830;9.262;2023-03-05T04:33:05;98721.38;;;2.96;75.22
7760;BME280;3924;48.830;9.262;2023-03-05T04:35:32;98724.03;;;2.96;75.45
7760;BME280;3924;48.830;9.262;2023-03-05T04:37:59;98714.16;;;2.97;75.26
7760;BME280;3924;48.830;9.262;2023-03-05T04:40:25;98723.22;;;2.96;75.44
7760;BME280;3924;48.830;9.262;2023-03-05T04:42:52;98720.78;;;2.94;75.64
7760;BME280;3924;48.830;9.262;2023-03-05T04:45:18;98716.22;;;2.95;75.63
7760;BME280;3924;48.830;9.262;2023-03-05T04:47:44;98715.41;;;2.94;75.56
7760;BME280;3924;48.830;9.262;2023-03-05T04:50:11;98713.78;;;2.93;75.57
7760;BME280;3924;48.830;9.262;2023-03-05T04:52:43;98707.63;;;2.93;75.76
7760;BME280;3924;48.830;9.262;2023-03-05T04:55:12;98710.31;;;2.93;75.64
7760;BME280;3924;48.830;9.262;2023-03-05T04:57:38;98713.78;;;2.93;75.72
7760;BME280;3924;48.830;9.262;2023-03-05T05:00:08;98710.56;;;2.91;75.81
7760;BME280;3924;48.830;9.262;2023-03-05T05:02:47;98712.97;;;2.93;75.68
7760;BME280;3924;48.830;9.262;2023-03-05T05:05:17;98711.38;;;2.92;75.61
7760;BME280;3924;48.830;9.262;2023-03-05T05:07:44;98703.09;;;2.93;75.83
7760;BME280;3924;48.830;9.262;2023-03-05T05:10:11;98703.09;;;2.93;76.03
7760;BME280;3924;48.830;9.262;2023-03-05T05:12:38;98708.44;;;2.93;76.07
7760;BME280;3924;48.830;9.262;2023-03-05T05:15:10;98706.34;;;2.95;75.90
7760;BME280;3924;48.830;9.262;2023-03-05T05:17:38;98701.00;;;2.95;76.14
7760;BME280;3924;48.830;9.262;2023-03-05T05:20:05;98704.69;;;2.94;76.08
7760;BME280;3924;48.830;9.262;2023-03-05T05:22:33;98701.00;;;2.95;75.95
7760;BME280;3924;48.830;9.262;2023-03-05T05:25:00;98702.84;;;2.95;76.09
7760;BME280;3924;48.830;9.262;2023-03-05T05:27:27;98698.31;;;2.95;75.96
7760;BME280;3924;48.830;9.262;2023-03-05T05:29:53;98701.00;;;2.95;76.17
7760;BME280;3924;48.830;9.262;2023-03-05T05:32:21;98700.16;;;2.95;76.20
7760;BME280;3924;48.830;9.262;2023-03-05T05:34:56;98695.66;;;2.95;76.19
7760;BME280;3924;48.830;9.262;2023-03-05T05:37:24;98694.81;;;2.95;76.18
7760;BME280;3924;48.830;9.262;2023-03-05T05:39:51;98703.69;;;2.95;76.03
7760;BME280;3924;48.830;9.262;2023-03-05T05:42:19;98702.84;;;2.95;76.14
7760;BME280;3924;48.830;9.262;2023-03-05T05:44:46;98698.53;;;2.94;76.20
7760;BME280;3924;48.830;9.262;2023-03-05T05:47:14;98699.34;;;2.94;76.16
7760;BME280;3924;48.830;9.262;2023-03-05T05:49:41;98701.22;;;2.94;76.18
7760;BME280;3924;48.830;9.262;2023-03-05T05:52:07;98700.41;;;2.93;76.35
7760;BME280;3924;48.830;9.262;2023-03-05T05:54:34;98699.84;;;2.91;76.21
7760;BME280;3924;48.830;9.262;2023-03-05T05:57:01;98696.09;;;2.92;76.24
7760;BME280;3924;48.830;9.262;2023-03-05T05:59:27;98700.66;;;2.92;76.45
7760;BME280;3924;48.830;9.262;2023-03-05T06:01:54;98697.16;;;2.91;76.67
7760;BME280;3924;48.830;9.262;2023-03-05T06:04:21;98701.94;;;2.89;76.30
7760;BME280;3924;48.830;9.262;2023-03-05T06:06:48;98694.50;;;2.91;76.41
7760;BME280;3924;48.830;9.262;2023-03-05T06:09:14;98699.03;;;2.91;76.41
7760;BME280;3924;48.830;9.262;2023-03-05T06:11:41;98697.16;;;2.91;76.33
7760;BME280;3924;48.830;9.262;2023-03-05T06:14:09;98698.22;;;2.90;76.53
7760;BME280;3924;48.830;9.262;2023-03-05T06:16:36;98705.19;;;2.91;76.45
7760;BME280;3924;48.830;9.262;2023-03-05T06:19:04;98707.88;;;2.91;76.47
7760;BME280;3924;48.830;9.262;2023-03-05T06:21:31;98701.47;;;2.92;76.43
7760;BME280;3924;48.830;9.262;2023-03-05T06:23:57;98696.09;;;2.92;76.65
7760;BME280;3924;48.830;9.262;2023-03-05T06:26:24;98703.09;;;2.93;76.68
7760;BME280;3924;48.830;9.262;2023-03-05T06:28:51;98703.09;;;2.93;76.40
7760;BME280;3924;48.830;9.262;2023-03-05T06:31:20;98700.41;;;2.93;76.46
7760;BME280;3924;48.830;9.262;2023-03-05T06:33:48;98697.72;;;2.93;76.84
7760;BME280;3924;48.830;9.262;2023-03-05T06:36:17;98706.56;;;2.94;76.60
7760;BME280;3924;48.830;9.262;2023-03-05T06:38:44;98698.53;;;2.94;76.48
7760;BME280;3924;48.830;9.262;2023-03-05T06:41:13;98698.78;;;2.92;76.30
7760;BME280;3924;48.830;9.262;2023-03-05T06:43:42;98693.44;;;2.92;76.79
7760;BME280;3924;48.830;9.262;2023-03-05T06:48:42;98696.66;;;2.94;76.66
7760;BME280;3924;48.830;9.262;2023-03-05T06:53:44;98688.19;;;2.97;76.46
7760;BME280;3924;48.830;9.262;2023-03-05T06:56:15;98689.78;;;2.98;76.69
7760;BME280;3924;48.830;9.262;2023-03-05T06:58:43;98689.00;;;2.98;76.70
7760;BME280;3924;48.830;9.262;2023-03-05T07:01:11;98696.78;;;2.99;76.89
7760;BME280;3924;48.830;9.262;2023-03-05T07:03:38;98693.03;;;3.00;76.60
7760;BME280;3924;48.830;9.262;2023-03-05T07:06:06;98690.16;;;3.02;76.56
7760;BME280;3924;48.830;9.262;2023-03-05T07:08:33;98692.56;;;3.04;76.50
7760;BME280;3924;48.830;9.262;2023-03-05T07:11:00;98683.94;;;3.01;76.77
7760;BME280;3924;48.830;9.262;2023-03-05T07:13:27;98681.88;;;3.04;76.65
7760;BME280;3924;48.830;9.262;2023-03-05T07:15:54;98691.53;;;3.05;76.45
7760;BME280;3924;48.830;9.262;2023-03-05T07:18:21;98684.53;;;3.04;76.53
7760;BME280;3924;48.830;9.262;2023-03-05T07:20:47;98679.75;;;3.06;76.46
7760;BME280;3924;48.830;9.262;2023-03-05T07:23:14;98679.75;;;3.06;76.48
7760;BME280;3924;48.830;9.262;2023-03-05T07:25:40;98673.09;;;3.08;76.63
7760;BME280;3924;48.830;9.262;2023-03-05T07:28:07;98681.94;;;3.09;76.77
7760;BME280;3924;48.830;9.262;2023-03-05T07:30:34;98679.25;;;3.09;76.56
7760;BME280;3924;48.830;9.262;2023-03-05T07:33:01;98680.09;;;3.09;76.79
7760;BME280;3924;48.830;9.262;2023-03-05T07:35:28;98679.25;;;3.09;76.54
7760;BME280;3924;48.830;9.262;2023-03-05T07:37:54;98675.56;;;3.10;76.57
7760;BME280;3924;48.830;9.262;2023-03-05T07:40:21;98667.28;;;3.11;76.61
7760;BME280;3924;48.830;9.262;2023-03-05T07:42:48;98669.44;;;3.14;76.65
7760;BME280;3924;48.830;9.262;2023-03-05T07:45:14;98670.25;;;3.15;76.73
7760;BME280;3924;48.830;9.262;2023-03-05T07:47:40;98671.66;;;3.17;76.44
7760;BME280;3924;48.830;9.262;2023-03-05T07:50:09;98665.25;;;3.18;76.47
7760;BME280;3924;48.830;9.262;2023-03-05T07:52:35;98670.91;;;3.22;76.46
7760;BME280;3924;48.830;9.262;2023-03-05T07:55:02;98664.75;;;3.21;76.55
7760;BME280;3924;48.830;9.262;2023-03-05T07:57:29;98674.75;;;3.26;76.65
7760;BME280;3924;48.830;9.262;2023-03-05T07:59:55;98672.63;;;3.28;76.47
7760;BME280;3924;48.830;9.262;2023-03-05T08:02:22;98672.97;;;3.32;76.41
7760;BME280;3924;48.830;9.262;2023-03-05T08:04:48;98666.31;;;3.34;76.38
7760;BME280;3924;48.830;9.262;2023-03-05T08:07:15;98669.00;;;3.34;76.42
7760;BME280;3924;48.830;9.262;2023-03-05T08:09:42;98660.94;;;3.34;76.34
7760;BME280;3924;48.830;9.262;2023-03-05T08:12:09;98660.47;;;3.37;76.21
7760;BME280;3924;48.830;9.262;2023-03-05T08:14:36;98660.47;;;3.37;76.38
7760;BME280;3924;48.830;9.262;2023-03-05T08:17:04;98661.28;;;3.38;76.25
7760;BME280;3924;48.830;9.262;2023-03-05T08:19:31;98668.59;;;3.42;76.38
7760;BME280;3924;48.830;9.262;2023-03-05T08:21:58;98664.88;;;3.43;76.23
7760;BME280;3924;48.830;9.262;2023-03-05T08:24:25;98662.19;;;3.43;76.33
7760;BME280;3924;48.830;9.262;2023-03-05T08:26:56;98662.75;;;3.45;76.22
7760;BME280;3924;48.830;9.262;2023-03-05T08:29:23;98664.38;;;3.46;76.20
7760;BME280;3924;48.830;9.262;2023-03-05T08:31:51;98657.69;;;3.49;76.16
7760;BME280;3924;48.830;9.262;2023-03-05T08:34:19;98656.09;;;3.48;76.04
7760;BME280;3924;48.830;9.262;2023-03-05T08:36:46;98662.00;;;3.50;76.28
7760;BME280;3924;48.830;9.262;2023-03-05T08:39:13;98656.41;;;3.51;76.39
7760;BME280;3924;48.830;9.262;2023-03-05T08:41:40;98654.28;;;3.53;76.07
7760;BME280;3924;48.830;9.262;2023-03-05T08:44:06;98657.53;;;3.55;76.11
7760;BME280;3924;48.830;9.262;2023-03-05T08:46:33;98657.06;;;3.59;76.14
7760;BME280;3924;48.830;9.262;2023-03-05T08:49:00;98653.31;;;3.60;76.15
7760;BME280;3924;48.830;9.262;2023-03-05T08:51:26;98654.13;;;3.60;76.11
7760;BME280;3924;48.830;9.262;2023-03-05T08:53:54;98653.63;;;3.63;75.72
7760;BME280;3924;48.830;9.262;2023-03-05T08:56:21;98653.16;;;3.66;76.00
7760;BME280;3924;48.830;9.262;2023-03-05T08:58:47;98653.16;;;3.66;76.13
7760;BME280;3924;48.830;9.262;2023-03-05T09:01:14;98650.72;;;3.65;75.85
7760;BME280;3924;48.830;9.262;2023-03-05T09:03:40;98641.63;;;3.66;76.00
7760;BME280;3924;48.830;9.262;2023-03-05T09:06:08;98644.88;;;3.68;75.75
7760;BME280;3924;48.830;9.262;2023-03-05T09:08:35;98647.28;;;3.69;75.81
7760;BME280;3924;48.830;9.262;2023-03-05T09:11:05;98647.63;;;3.73;75.91
7760;BME280;3924;48.830;9.262;2023-03-05T09:13:33;98643.63;;;3.75;75.75
7760;BME280;3924;48.830;9.262;2023-03-05T09:16:11;98634.84;;;3.80;75.62
7760;BME280;3924;48.830;9.262;2023-03-05T09:18:38;98635.75;;;3.86;75.44
7760;BME280;3924;48.830;9.262;2023-03-05T09:21:11;98636.63;;;3.91;75.42
7760;BME280;3924;48.830;9.262;2023-03-05T09:23:39;98635.56;;;3.92;75.02
7760;BME280;3924;48.830;9.262;2023-03-05T09:26:11;98633.97;;;3.91;75.23
7760;BME280;3924;48.830;9.262;2023-03-05T09:28:38;98633.44;;;3.94;75.50
7760;BME280;3924;48.830;9.262;2023-03-05T09:31:06;98624.41;;;4.00;75.35
7760;BME280;3924;48.830;9.262;2023-03-05T09:33:34;98615.84;;;4.03;74.92
7760;BME280;3924;48.830;9.262;2023-03-05T09:36:02;98622.63;;;4.06;75.11
7760;BME280;3924;48.830;9.262;2023-03-05T09:38:30;98620.78;;;4.11;74.97
7760;BME280;3924;48.830;9.262;2023-03-05T09:41:06;98619.50;;;4.14;75.17
7760;BME280;3924;48.830;9.262;2023-03-05T09:49:17;98614.38;;;4.13;74.60
7760;BME280;3924;48.830;9.262;2023-03-05T09:51:49;98608.50;;;4.16;74.70
7760;BME280;3924;48.830;9.262;2023-03-05T09:54:20;98611.75;;;4.18;74.65
7760;BME280;3924;48.830;9.262;2023-03-05T09:56:52;98600.53;;;4.21;74.50
7760;BME280;3924;48.830;9.262;2023-03-05T10:01:58;98603.84;;;4.28;74.47
7760;BME280;3924;48.830;9.262;2023-03-05T10:04:52;98603.28;;;4.26;74.51
7760;BME280;3924;48.830;9.262;2023-03-05T10:07:26;98600.09;;;4.29;74.45
7760;BME280;3924;48.830;9.262;2023-03-05T10:12:59;98597.91;;;4.26;74.37
7760;BME280;3924;48.830;9.262;2023-03-05T10:15:39;98587.19;;;4.26;74.40
7760;BME280;3924;48.830;9.262;2023-03-05T10:20:57;98594.41;;;4.25;74.42
7760;BME280;3924;48.830;9.262;2023-03-05T10:23:30;98591.97;;;4.24;74.30
7760;BME280;3924;48.830;9.262;2023-03-05T10:40:02;98574.78;;;4.20;74.41
7760;BME280;3924;48.830;9.262;2023-03-05T10:45:24;98573.69;;;4.21;74.32
7760;BME280;3924;48.830;9.262;2023-03-05T10:47:54;98570.25;;;4.25;74.34
7760;BME280;3924;48.830;9.262;2023-03-05T10:50:27;98560.91;;;4.28;74.26
7760;BME280;3924;48.830;9.262;2023-03-05T10:55:35;98556.09;;;4.30;74.07
7760;BME280;3924;48.830;9.262;2023-03-05T10:58:10;98549.97;;;4.34;74.23
7760;BME280;3924;48.830;9.262;2023-03-05T11:00:37;98548.38;;;4.38;73.70
7760;BME280;3924;48.830;9.262;2023-03-05T11:03:08;98557.03;;;4.41;73.72
7760;BME280;3924;48.830;9.262;2023-03-05T11:05:42;98555.22;;;4.46;73.68
7760;BME280;3924;48.830;9.262;2023-03-05T11:08:33;98545.56;;;4.50;73.41
7760;BME280;3924;48.830;9.262;2023-03-05T11:11:19;98543.19;;;4.54;73.53
7760;BME280;3924;48.830;9.262;2023-03-05T11:13:56;98538.59;;;4.49;73.41
7760;BME280;3924;48.830;9.262;2023-03-05T11:16:27;98540.41;;;4.44;73.78
7760;BME280;3924;48.830;9.262;2023-03-05T11:21:40;98529.56;;;4.33;73.54
7760;BME280;3924;48.830;9.262;2023-03-05T11:24:17;98532.50;;;4.32;73.84
7760;BME280;3924;48.830;9.262;2023-03-05T11:26:52;98525.28;;;4.32;73.53
7760;BME280;3924;48.830;9.262;2023-03-05T11:29:29;98525.75;;;4.29;73.84
7760;BME280;3924;48.830;9.262;2023-03-05T11:32:20;98530.31;;;4.29;73.60
7760;BME280;3924;48.830;9.262;2023-03-05T11:34:47;98527.63;;;4.29;73.81
7760;BME280;3924;48.830;9.262;2023-03-05T11:37:29;98519.59;;;4.29;73.79
7760;BME280;3924;48.830;9.262;2023-03-05T11:42:39;98505.66;;;4.32;73.76
7760;BME280;3924;48.830;9.262;2023-03-05T11:45:14;98504.09;;;4.36;73.45
7760;BME280;3924;48.830;9.262;2023-03-05T11:47:41;98506.25;;;4.39;73.54
7760;BME280;3924;48.830;9.262;2023-03-05T11:53:04;98495.59;;;4.44;73.20
7760;BME280;3924;48.830;9.262;2023-03-05T11:58:40;98493.81;;;4.55;72.99
7760;BME280;3924;48.830;9.262;2023-03-05T12:01:16;98488.44;;;4.55;72.89
7760;BME280;3924;48.830;9.262;2023-03-05T12:03:44;98483.38;;;4.58;73.01
7760;BME280;3924;48.830;9.262;2023-03-05T12:08:41;98479.13;;;4.62;72.90
7760;BME280;3924;48.830;9.262;2023-03-05T12:11:18;98480.19;;;4.66;72.61
7760;BME280;3924;48.830;9.262;2023-03-05T12:13:50;98468.44;;;4.68;72.54
7760;BME280;3924;48.830;9.262;2023-03-05T12:16:27;98462.78;;;4.69;72.45
7760;BME280;3924;48.830;9.262;2023-03-05T12:21:51;98457.09;;;4.65;72.62
7760;BME280;3924;48.830;9.262;2023-03-05T12:29:50;98453.88;;;4.63;72.35
7760;BME280;3924;48.830;9.262;2023-03-05T12:47:36;98422.41;;;4.54;72.30
7760;BME280;3924;48.830;9.262;2023-03-05T12:55:28;98408.72;;;4.55;72.25
7760;BME280;3924;48.830;9.262;2023-03-05T13:00:45;98405.28;;;4.60;71.77
7760;BME280;3924;48.830;9.262;2023-03-05T13:03:18;98408.78;;;4.60;71.86
7760;BME280;3924;48.830;9.262;2023-03-05T13:05:49;98403.94;;;4.62;71.71
7760;BME280;3924;48.830;9.262;2023-03-05T13:08:28;98401.81;;;4.64;71.99
7760;BME280;3924;48.830;9.262;2023-03-05T13:11:07;98395.41;;;4.71;71.62
7760;BME280;3924;48.830;9.262;2023-03-05T13:13:37;98393.56;;;4.76;71.73
7760;BME280;3924;48.830;9.262;2023-03-05T13:16:16;98393.84;;;4.80;71.47
7760;BME280;3924;48.830;9.262;2023-03-05T13:18:46;98390.63;;;4.78;71.59
7760;BME280;3924;48.830;9.262;2023-03-05T13:21:15;98387.38;;;4.76;71.42
7760;BME280;3924;48.830;9.262;2023-03-05T13:23:54;98393.03;;;4.79;71.29
7760;BME280;3924;48.830;9.262;2023-03-05T13:26:25;98384.97;;;4.79;71.59
7760;BME280;3924;48.830;9.262;2023-03-05T13:29:14;98383.09;;;4.75;71.31
7760;BME280;3924;48.830;9.262;2023-03-05T13:34:40;98387.38;;;4.76;71.60
7760;BME280;3924;48.830;9.262;2023-03-05T13:37:18;98383.09;;;4.75;71.40
7760;BME280;3924;48.830;9.262;2023-03-05T13:40:41;98383.59;;;4.72;71.38
7760;BME280;3924;48.830;9.262;2023-03-05T13:42:48;98388.97;;;4.72;71.38
7760;BME280;3924;48.830;9.262;2023-03-05T13:45:25;98375.53;;;4.72;71.39
7760;BME280;3924;48.830;9.262;2023-03-05T13:48:01;98374.47;;;4.68;71.45
7760;BME280;3924;48.830;9.262;2023-03-05T13:50:29;98374.47;;;4.68;71.28
7760;BME280;3924;48.830;9.262;2023-03-05T13:53:23;98374.47;;;4.68;71.47
7760;BME280;3924;48.830;9.262;2023-03-05T13:55:54;98366.91;;;4.64;71.13
7760;BME280;3924;48.830;9.262;2023-03-05T13:58:51;98368.50;;;4.65;71.43
7760;BME280;3924;48.830;9.262;2023-03-05T14:03:52;98364.22;;;4.64;71.17
7760;BME280;3924;48.830;9.262;2023-03-05T14:06:23;98358.81;;;4.59;71.22
7760;BME280;3924;48.830;9.262;2023-03-05T14:08:53;98365.78;;;4.55;71.29
7760;BME280;3924;48.830;9.262;2023-03-05T14:11:20;98361.72;;;4.53;71.33
7760;BME280;3924;48.830;9.262;2023-03-05T14:13:47;98359.28;;;4.51;71.28
7760;BME280;3924;48.830;9.262;2023-03-05T14:16:24;98350.69;;;4.49;71.07
7760;BME280;3924;48.830;9.262;2023-03-05T14:18:58;98349.91;;;4.49;70.99
7760;BME280;3924;48.830;9.262;2023-03-05T14:21:43;98349.59;;;4.45;71.37
7760;BME280;3924;48.830;9.262;2023-03-05T14:24:13;98341.78;;;4.44;71.07
7760;BME280;3924;48.830;9.262;2023-03-05T14:26:51;98344.75;;;4.42;71.21
7760;BME280;3924;48.830;9.262;2023-03-05T14:29:20;98339.88;;;4.39;71.26
7760;BME280;3924;48.830;9.262;2023-03-05T14:31:52;98335.34;;;4.39;71.08
7760;BME280;3924;48.830;9.262;2023-03-05T14:34:27;98330.75;;;4.35;71.18
7760;BME280;3924;48.830;9.262;2023-03-05T14:36:59;98330.19;;;4.33;71.22
7760;BME280;3924;48.830;9.262;2023-03-05T14:39:35;98331.25;;;4.32;71.29
7760;BME280;3924;48.830;9.262;2023-03-05T14:42:23;98330.75;;;4.35;71.11
7760;BME280;3924;48.830;9.262;2023-03-05T14:44:51;98330.75;;;4.35;71.32
7760;BME280;3924;48.830;9.262;2023-03-05T14:47:17;98329.66;;;4.36;71.22
7760;BME280;3924;48.830;9.262;2023-03-05T14:49:44;98330.19;;;4.33;71.11
7760;BME280;3924;48.830;9.262;2023-03-05T14:52:14;98324.25;;;4.31;71.07
7760;BME280;3924;48.830;9.262;2023-03-05T14:54:42;98310.84;;;4.26;71.12
7760;BME280;3924;48.830;9.262;2023-03-05T14:57:24;98316.69;;;4.23;71.23
7760;BME280;3924;48.830;9.262;2023-03-05T14:59:52;98311.59;;;4.21;71.38
7760;BME280;3924;48.830;9.262;2023-03-05T15:02:21;98301.13;;;4.20;71.22
7760;BME280;3924;48.830;9.262;2023-03-05T15:04:48;98302.19;;;4.19;71.20
7760;BME280;3924;48.830;9.262;2023-03-05T15:07:34;98307.31;;;4.20;71.35
7760;BME280;3924;48.830;9.262;2023-03-05T15:10:02;98296.84;;;4.19;71.35
7760;BME280;3924;48.830;9.262;2023-03-05T15:12:29;98297.34;;;4.16;71.24
7760;BME280;3924;48.830;9.262;2023-03-05T15:14:55;98289.81;;;4.18;71.32